createdAt,value
2022-11-18T00:00:55.759Z,1.30
2022-11-18T00:03:22.483Z,1.38
2022-11-18T00:05:56.568Z,1.63
2022-11-18T00:08:25.259Z,1.60
2022-11-18T00:10:52.285Z,1.80
2022-11-18T00:13:37.474Z,1.90
2022-11-18T00:16:09.814Z,2.25
2022-11-18T00:18:37.287Z,2.40
2022-11-18T00:21:06.606Z,2.42
2022-11-18T00:23:33.407Z,2.90
2022-11-18T00:26:18.004Z,2.75
2022-11-18T00:28:44.523Z,2.33
2022-11-18T00:31:13.462Z,2.20
2022-11-18T00:33:40.813Z,2.30
2022-11-18T00:36:10.280Z,2.40
2022-11-18T00:38:37.264Z,2.33
2022-11-18T00:41:07.104Z,2.60
2022-11-18T00:43:34.686Z,3.00
2022-11-18T00:46:01.682Z,3.58
2022-11-18T00:48:29.041Z,4.05
2022-11-18T00:50:58.131Z,2.55
2022-11-18T00:53:26.923Z,2.20
2022-11-18T00:55:54.117Z,2.10
2022-11-18T00:58:20.961Z,1.88
2022-11-18T01:00:51.085Z,1.98
2022-11-18T01:03:18.328Z,1.80
2022-11-18T01:05:45.019Z,1.83
2022-11-18T01:08:12.957Z,2.10
2022-11-18T01:10:40.495Z,2.30
2022-11-18T01:13:20.410Z,2.30
2022-11-18T01:15:51.340Z,2.05
2022-11-18T01:18:19.959Z,2.40
2022-11-18T01:20:47.313Z,2.20
2022-11-18T01:23:14.930Z,2.10
2022-11-18T01:25:43.762Z,2.00
2022-11-18T01:28:11.202Z,1.95
2022-11-18T01:30:39.093Z,1.98
2022-11-18T01:33:06.366Z,1.75
2022-11-18T01:35:37.408Z,1.70
2022-11-18T01:38:04.941Z,1.50
2022-11-18T01:40:32.353Z,1.65
2022-11-18T01:42:59.087Z,1.80
2022-11-18T01:45:33.654Z,1.73
2022-11-18T01:48:03.115Z,1.50
2022-11-18T01:50:30.677Z,1.60
2022-11-18T01:53:01.972Z,1.75
2022-11-18T01:55:32.857Z,1.60
2022-11-18T01:58:10.841Z,1.55
2022-11-18T02:00:37.823Z,1.60
2022-11-18T02:03:04.806Z,1.80
2022-11-18T02:05:33.734Z,1.60
2022-11-18T02:08:01.643Z,1.50
2022-11-18T02:10:28.780Z,1.77
2022-11-18T02:12:56.569Z,1.50
2022-11-18T02:15:34.915Z,1.50
2022-11-18T02:18:14.726Z,1.30
2022-11-18T02:20:45.698Z,1.45
2022-11-18T02:23:36.194Z,1.40
2022-11-18T02:26:05.578Z,1.40
2022-11-18T02:28:50.429Z,1.48
2022-11-18T02:31:39.894Z,1.40
2022-11-18T02:34:10.116Z,1.60
2022-11-18T02:37:03.161Z,1.52
2022-11-18T02:39:45.640Z,1.60
2022-11-18T02:42:14.940Z,1.90
2022-11-18T02:44:47.719Z,1.80
2022-11-18T02:47:16.770Z,1.93
2022-11-18T02:49:54.331Z,1.70
2022-11-18T02:52:22.067Z,1.98
2022-11-18T02:54:50.482Z,2.20
2022-11-18T02:57:19.344Z,1.60
2022-11-18T02:59:45.838Z,1.98
2022-11-18T03:02:16.996Z,1.80
2022-11-18T03:04:46.550Z,1.90
2022-11-18T03:07:23.009Z,1.70
2022-11-18T03:09:52.498Z,1.60
2022-11-18T03:12:40.387Z,1.65
2022-11-18T03:15:19.028Z,1.50
2022-11-18T03:17:54.560Z,1.58
2022-11-18T03:20:53.164Z,1.35
2022-11-18T03:23:28.811Z,1.40
2022-11-18T03:26:01.206Z,1.52
2022-11-18T03:28:33.818Z,1.80
2022-11-18T03:31:10.422Z,1.67
2022-11-18T03:33:43.662Z,1.40
2022-11-18T03:36:12.425Z,1.33
2022-11-18T03:38:44.361Z,1.40
2022-11-18T03:41:12.768Z,1.27
2022-11-18T03:43:44.729Z,1.33
2022-11-18T03:46:22.646Z,1.08
2022-11-18T03:48:55.390Z,1.10
2022-11-18T03:51:44.475Z,1.00
2022-11-18T03:54:18.915Z,1.10
2022-11-18T03:56:54.735Z,1.20
2022-11-18T03:59:26.550Z,1.30
2022-11-18T04:01:57.676Z,1.20
2022-11-18T04:04:26.220Z,1.20
2022-11-18T04:07:22.998Z,1.08
2022-11-18T04:09:57.042Z,1.10
2022-11-18T04:12:26.734Z,1.10
2022-11-18T04:14:55.476Z,1.00
2022-11-18T04:17:24.173Z,0.90
2022-11-18T04:19:50.936Z,0.80
2022-11-18T04:22:19.190Z,0.80
2022-11-18T04:24:45.988Z,0.60
2022-11-18T04:27:13.135Z,0.60
2022-11-18T04:29:39.641Z,0.70
2022-11-18T04:32:06.889Z,0.70
2022-11-18T04:34:33.396Z,0.60
2022-11-18T04:36:59.903Z,0.60
2022-11-18T04:39:26.455Z,0.60
2022-11-18T04:41:55.684Z,0.70
2022-11-18T04:44:31.347Z,0.60
2022-11-18T04:47:01.594Z,0.60
2022-11-18T04:49:29.196Z,0.70
2022-11-18T04:51:56.510Z,0.60
2022-11-18T04:54:23.774Z,0.60
2022-11-18T04:56:50.532Z,0.70
2022-11-18T04:59:20.809Z,0.60
2022-11-18T05:01:48.965Z,0.68
2022-11-18T05:04:18.536Z,0.90
2022-11-18T05:06:45.669Z,0.63
2022-11-18T05:09:12.269Z,0.80
2022-11-18T05:11:57.685Z,0.80
2022-11-18T05:14:28.742Z,0.90
2022-11-18T05:16:56.244Z,0.90
2022-11-18T05:19:23.119Z,1.10
2022-11-18T05:21:49.712Z,1.00
2022-11-18T05:24:16.514Z,1.08
2022-11-18T05:26:43.322Z,1.00
2022-11-18T05:29:10.063Z,1.15
2022-11-18T05:31:36.674Z,1.02
2022-11-18T05:34:03.793Z,1.00
2022-11-18T05:36:30.410Z,1.00
2022-11-18T05:39:00.373Z,1.10
2022-11-18T05:41:45.699Z,1.00
2022-11-18T05:44:12.494Z,0.90
2022-11-18T05:46:39.392Z,1.13
2022-11-18T05:49:06.228Z,1.00
2022-11-18T05:51:32.747Z,0.90
2022-11-18T05:54:02.794Z,0.85
2022-11-18T05:56:38.434Z,1.02
2022-11-18T05:59:05.270Z,1.10
2022-11-18T06:01:38.055Z,1.00
2022-11-18T06:04:09.511Z,1.13
2022-11-18T06:06:36.502Z,1.10
2022-11-18T06:09:05.691Z,1.15
2022-11-18T06:11:39.027Z,1.20
2022-11-18T06:14:12.175Z,1.67
2022-11-18T06:16:41.211Z,7.20
2022-11-18T06:19:08.150Z,4.10
2022-11-18T06:21:34.709Z,4.00
2022-11-18T06:24:02.468Z,1.90
2022-11-18T06:26:29.671Z,4.63
2022-11-18T06:28:56.878Z,1.85
2022-11-18T06:31:23.383Z,1.85
2022-11-18T06:33:49.892Z,2.33
2022-11-18T06:36:16.380Z,2.00
2022-11-18T06:38:42.867Z,2.40
2022-11-18T06:41:09.436Z,2.95
2022-11-18T06:43:38.799Z,3.15
2022-11-18T06:46:25.925Z,1.90
2022-11-18T06:48:52.442Z,1.80
2022-11-18T06:51:19.405Z,3.33
2022-11-18T06:53:45.947Z,2.30
2022-11-18T06:56:14.754Z,1.90
2022-11-18T06:58:41.341Z,2.20
2022-11-18T07:01:23.207Z,1.80
2022-11-18T07:03:50.491Z,2.50
2022-11-18T07:06:19.816Z,2.20
2022-11-18T07:08:46.924Z,2.05
2022-11-18T07:11:15.403Z,3.95
2022-11-18T07:13:43.981Z,3.10
2022-11-18T07:16:14.096Z,1.60
2022-11-18T07:18:41.943Z,2.30
2022-11-18T07:21:26.403Z,2.00
2022-11-18T07:23:53.724Z,1.70
2022-11-18T07:26:20.928Z,2.20
2022-11-18T07:28:47.597Z,1.90
2022-11-18T07:31:16.126Z,1.65
2022-11-18T07:33:44.014Z,2.00
2022-11-18T07:36:18.655Z,1.75
2022-11-18T07:38:46.286Z,1.90
2022-11-18T07:41:15.417Z,2.40
2022-11-18T07:43:42.705Z,1.90
2022-11-18T07:46:28.575Z,1.33
2022-11-18T07:48:57.959Z,2.10
2022-11-18T07:51:29.997Z,2.30
2022-11-18T07:53:56.753Z,2.10
2022-11-18T07:56:23.880Z,3.90
2022-11-18T07:58:54.666Z,2.90
2022-11-18T08:01:24.209Z,2.80
2022-11-18T08:03:51.078Z,2.50
2022-11-18T08:06:19.135Z,2.25
2022-11-18T08:08:46.133Z,1.80
2022-11-18T08:11:21.603Z,1.90
2022-11-18T08:13:48.677Z,1.60
2022-11-18T08:16:18.127Z,1.77
2022-11-18T08:18:45.145Z,2.00
2022-11-18T08:21:12.955Z,1.65
2022-11-18T08:23:42.152Z,1.98
2022-11-18T08:26:13.660Z,1.70
2022-11-18T08:28:41.606Z,1.50
2022-11-18T08:31:15.415Z,1.50
2022-11-18T08:33:41.991Z,1.83
2022-11-18T08:36:17.536Z,1.48
2022-11-18T08:38:44.798Z,1.25
2022-11-18T08:41:14.428Z,1.20
2022-11-18T08:43:41.299Z,1.33
2022-11-18T08:46:07.800Z,1.73
2022-11-18T08:48:34.380Z,2.00
2022-11-18T08:51:01.556Z,2.75
2022-11-18T08:53:28.323Z,1.77
2022-11-18T08:55:59.067Z,2.05
2022-11-18T08:58:26.029Z,2.00
2022-11-18T09:00:52.889Z,1.30
2022-11-18T09:03:20.048Z,2.10
2022-11-18T09:05:46.862Z,1.30
2022-11-18T09:08:13.583Z,1.67
2022-11-18T09:10:40.085Z,1.40
2022-11-18T09:13:38.601Z,1.50
2022-11-18T09:15:53.586Z,1.55
2022-11-18T09:18:20.113Z,1.60
2022-11-18T09:21:19.257Z,0.95
2022-11-18T09:23:46.115Z,3.00
2022-11-18T09:26:19.195Z,1.75
2022-11-18T09:28:45.683Z,1.95
2022-11-18T09:31:14.492Z,2.70
2022-11-18T09:33:41.225Z,1.65
2022-11-18T09:36:17.621Z,2.15
2022-11-18T09:38:48.544Z,2.20
2022-11-18T09:41:26.957Z,3.03
2022-11-18T09:44:12.780Z,1.50
2022-11-18T09:46:48.390Z,3.08
2022-11-18T09:49:21.937Z,4.05
2022-11-18T09:51:50.913Z,2.60
2022-11-18T09:54:17.792Z,3.63
2022-11-18T09:56:44.542Z,2.78
2022-11-18T09:59:14.737Z,4.25
2022-11-18T10:01:42.731Z,6.78
2022-11-18T10:04:18.263Z,3.20
2022-11-18T10:06:46.382Z,2.58
2022-11-18T10:09:27.451Z,2.03
2022-11-18T10:12:19.145Z,1.50
2022-11-18T10:14:48.658Z,2.20
2022-11-18T10:17:52.941Z,1.63
2022-11-18T10:20:38.091Z,2.00
2022-11-18T10:23:31.664Z,1.48
2022-11-18T10:25:58.549Z,1.13
2022-11-18T10:28:29.605Z,1.73
2022-11-18T10:31:08.091Z,1.38
2022-11-18T10:33:35.243Z,1.60
2022-11-18T10:36:16.690Z,2.10
2022-11-18T10:38:49.488Z,1.98
2022-11-18T10:41:19.376Z,2.90
2022-11-18T10:43:56.475Z,2.13
2022-11-18T10:46:30.957Z,2.70
2022-11-18T10:49:09.515Z,4.00
2022-11-18T10:51:38.486Z,2.88
2022-11-18T10:54:16.138Z,2.90
2022-11-18T10:57:05.947Z,2.22
2022-11-18T10:59:36.244Z,2.40
2022-11-18T11:02:16.181Z,1.85
2022-11-18T11:04:44.143Z,2.80
2022-11-18T11:07:27.439Z,2.30
2022-11-18T11:10:23.164Z,1.60
2022-11-18T11:12:59.737Z,1.58
2022-11-18T11:15:45.206Z,1.20
2022-11-18T11:18:38.952Z,0.88
2022-11-18T11:21:22.880Z,0.82
2022-11-18T11:23:49.495Z,0.90
2022-11-18T11:29:31.090Z,1.15
2022-11-18T11:32:30.853Z,1.00
2022-11-18T11:35:03.075Z,3.30
2022-11-18T11:37:50.992Z,1.33
2022-11-18T11:40:40.884Z,1.33
2022-11-18T11:43:48.014Z,1.70
2022-11-18T11:47:15.439Z,1.25
2022-11-18T11:49:57.711Z,1.20
2022-11-18T11:53:01.002Z,1.20
2022-11-18T11:55:42.579Z,1.10
2022-11-18T11:58:35.121Z,1.10
2022-11-18T12:01:20.042Z,0.90
2022-11-18T12:03:52.147Z,1.13
2022-11-18T12:06:19.120Z,1.10
2022-11-18T12:09:11.487Z,1.10
2022-11-18T12:12:03.794Z,1.30
2022-11-18T12:14:46.126Z,1.50
2022-11-18T12:17:23.367Z,1.17
2022-11-18T12:19:49.965Z,1.20
2022-11-18T12:22:16.494Z,1.35
2022-11-18T12:25:08.748Z,1.55
2022-11-18T12:27:39.880Z,1.40
2022-11-18T12:30:18.800Z,1.40
2022-11-18T12:32:46.870Z,2.00
2022-11-18T12:35:13.495Z,1.58
2022-11-18T12:37:44.260Z,1.40
2022-11-18T12:40:31.820Z,1.60
2022-11-18T12:43:16.819Z,1.90
2022-11-18T12:45:44.199Z,2.10
2022-11-18T12:48:31.390Z,2.00
2022-11-18T12:51:00.983Z,2.10
2022-11-18T12:53:44.210Z,1.92
2022-11-18T12:56:19.804Z,1.80
2022-11-18T12:58:54.710Z,2.28
2022-11-18T13:01:36.096Z,2.38
2022-11-18T13:04:08.513Z,2.50
2022-11-18T13:06:37.688Z,2.45
2022-11-18T13:09:07.726Z,2.35
2022-11-18T13:11:47.508Z,2.00
2022-11-18T13:14:35.559Z,2.60
2022-11-18T13:17:20.872Z,2.55
2022-11-18T13:19:57.636Z,2.92
2022-11-18T13:22:43.369Z,2.80
2022-11-18T13:25:23.764Z,2.50
2022-11-18T13:28:00.750Z,2.58
2022-11-18T13:30:28.168Z,2.92
2022-11-18T13:32:58.587Z,2.28
2022-11-18T13:35:27.304Z,2.15
2022-11-18T13:37:59.301Z,2.58
2022-11-18T13:40:30.504Z,3.10
2022-11-18T13:42:57.418Z,2.30
2022-11-18T13:45:28.224Z,2.10
2022-11-18T13:48:05.720Z,2.47
2022-11-18T13:50:37.268Z,2.20
2022-11-18T13:53:27.535Z,2.20
2022-11-18T13:55:56.803Z,2.22
2022-11-18T13:59:15.510Z,2.60
2022-11-18T14:01:33.272Z,2.88
2022-11-18T14:04:20.007Z,2.90
2022-11-18T14:06:46.588Z,3.20
2022-11-18T14:09:30.124Z,3.00
2022-11-18T14:12:14.962Z,2.90
2022-11-18T14:14:42.699Z,5.25
2022-11-18T14:17:21.312Z,4.63
2022-11-18T14:19:50.826Z,3.40
2022-11-18T14:22:22.896Z,2.00
2022-11-18T14:25:03.812Z,1.88
2022-11-18T14:27:39.489Z,3.25
2022-11-18T14:30:31.042Z,3.30
2022-11-18T14:33:03.711Z,5.20
2022-11-18T14:35:33.517Z,6.38
2022-11-18T14:38:30.310Z,5.85
2022-11-18T14:40:55.259Z,6.35
2022-11-18T14:43:22.163Z,6.25
2022-11-18T14:45:48.754Z,3.72
2022-11-18T14:48:20.012Z,3.72
2022-11-18T14:50:47.896Z,4.45
2022-11-18T14:53:14.432Z,3.72
2022-11-18T14:55:41.589Z,2.70
2022-11-18T14:58:14.248Z,2.72
2022-11-18T15:00:46.515Z,3.45
2022-11-18T15:03:13.186Z,3.15
2022-11-18T15:05:40.560Z,2.17
2022-11-18T15:08:07.923Z,2.10
2022-11-18T15:10:34.746Z,2.40
2022-11-18T15:13:01.411Z,2.13
2022-11-18T15:15:28.122Z,2.80
2022-11-18T15:17:54.666Z,6.35
2022-11-18T15:20:22.643Z,4.88
2022-11-18T15:22:49.103Z,13.20
2022-11-18T15:25:15.644Z,5.40
2022-11-18T15:27:42.237Z,3.45
2022-11-18T15:30:12.139Z,2.60
2022-11-18T15:32:38.664Z,2.10
2022-11-18T15:35:05.456Z,2.55
2022-11-18T15:37:31.999Z,2.20
2022-11-18T15:39:59.676Z,2.38
2022-11-18T15:42:26.169Z,3.47
2022-11-18T15:44:52.704Z,3.50
2022-11-18T15:47:19.241Z,4.72
2022-11-18T15:49:45.773Z,8.15
2022-11-18T15:52:12.857Z,8.13
2022-11-18T15:54:39.501Z,5.20
2022-11-18T15:57:06.592Z,4.90
2022-11-18T15:59:33.141Z,4.15
2022-11-18T16:01:59.700Z,3.03
2022-11-18T16:04:27.438Z,3.88
2022-11-18T16:06:53.990Z,14.20
2022-11-18T16:09:20.927Z,8.73
2022-11-18T16:12:05.961Z,16.98
2022-11-18T16:14:32.524Z,20.42
2022-11-18T16:16:59.113Z,11.70
2022-11-18T16:19:26.938Z,13.30
2022-11-18T16:21:55.832Z,12.18
2022-11-18T16:24:25.523Z,10.07
2022-11-18T16:26:52.182Z,5.13
2022-11-18T16:29:19.405Z,5.50
2022-11-18T16:31:52.223Z,6.60
2022-11-18T16:34:24.900Z,4.50
2022-11-18T16:36:57.640Z,3.50
2022-11-18T16:39:26.377Z,3.80
2022-11-18T16:41:54.634Z,4.03
2022-11-18T16:44:21.308Z,3.70
2022-11-18T16:46:53.371Z,3.90
2022-11-18T16:49:25.358Z,4.35
2022-11-18T16:51:54.770Z,3.47
2022-11-18T16:54:23.874Z,3.88
2022-11-18T16:56:51.844Z,3.03
2022-11-18T16:59:21.767Z,3.83
2022-11-18T17:01:50.441Z,6.80
2022-11-18T17:04:17.689Z,6.35
2022-11-18T17:06:46.115Z,4.28
2022-11-18T17:09:15.263Z,3.70
2022-11-18T17:11:42.191Z,4.45
2022-11-18T17:15:14.653Z,4.82
2022-11-18T17:37:57.384Z,3.80
2022-11-18T17:53:45.294Z,4.30
2022-11-18T18:03:36.991Z,8.60
2022-11-18T18:06:08.059Z,8.80
2022-11-18T18:08:34.901Z,8.13
2022-11-18T18:11:02.724Z,7.63
2022-11-18T18:13:47.907Z,7.78
2022-11-18T18:16:14.825Z,7.03
2022-11-18T18:18:41.394Z,6.78
2022-11-18T18:21:12.611Z,7.25
2022-11-18T18:23:39.737Z,5.93
2022-11-18T18:26:08.110Z,5.55
2022-11-18T18:28:35.059Z,5.75
2022-11-18T18:31:06.679Z,9.43
2022-11-18T18:33:34.278Z,5.85
2022-11-18T18:36:02.369Z,50.85
2022-11-18T18:38:32.930Z,22.70
2022-11-18T18:41:04.771Z,9.52
2022-11-18T18:43:31.497Z,10.75
2022-11-18T18:46:21.319Z,9.52
2022-11-18T18:48:47.969Z,5.57
2022-11-18T18:51:14.619Z,6.72
2022-11-18T18:53:41.168Z,3.40
2022-11-18T18:56:08.019Z,4.90
2022-11-18T18:58:35.416Z,4.07
2022-11-18T19:01:13.039Z,4.40
2022-11-18T19:03:40.522Z,4.38
2022-11-18T19:06:50.179Z,4.13
2022-11-18T19:09:08.653Z,4.10
2022-11-18T19:11:54.768Z,4.10
2022-11-18T19:14:21.923Z,4.00
2022-11-18T19:16:48.794Z,4.78
2022-11-18T19:19:17.986Z,4.10
2022-11-18T19:21:47.571Z,4.07
2022-11-18T19:24:42.572Z,3.65
2022-11-18T19:27:00.580Z,4.13
2022-11-18T19:29:27.155Z,4.25
2022-11-18T19:31:53.660Z,3.65
2022-11-18T19:34:20.619Z,3.72
2022-11-18T19:36:47.287Z,4.63
2022-11-18T19:39:14.187Z,4.50
2022-11-18T19:41:40.705Z,5.40
2022-11-18T19:44:07.232Z,9.32
2022-11-18T19:46:33.709Z,6.97
2022-11-18T19:49:00.288Z,7.50
2022-11-18T19:51:26.909Z,7.53
2022-11-18T19:53:58.447Z,7.50
2022-11-18T19:56:26.140Z,6.60
2022-11-18T19:58:54.726Z,6.10
2022-11-18T20:01:25.362Z,5.00
2022-11-18T20:03:54.116Z,7.28
2022-11-18T20:06:22.011Z,4.85
2022-11-18T20:08:48.862Z,5.55
2022-11-18T20:11:18.070Z,4.95
2022-11-18T20:13:45.568Z,3.92
2022-11-18T20:16:15.962Z,5.43
2022-11-18T20:18:43.139Z,5.10
2022-11-18T20:21:16.123Z,4.65
2022-11-18T20:23:42.650Z,4.80
2022-11-18T20:26:14.610Z,4.00
2022-11-18T20:28:42.667Z,4.00
2022-11-18T20:31:11.929Z,3.58
2022-11-18T20:33:40.493Z,3.38
2022-11-18T20:36:09.671Z,3.00
2022-11-18T20:38:36.729Z,2.90
2022-11-18T20:41:05.416Z,3.17
2022-11-18T20:43:36.586Z,2.70
2022-11-18T20:46:04.914Z,2.97
2022-11-18T20:48:32.253Z,4.28
2022-11-18T20:51:06.388Z,5.80
2022-11-18T20:53:37.695Z,2.58
2022-11-18T20:56:06.102Z,3.13
2022-11-18T20:58:33.473Z,3.70
2022-11-18T21:01:12.531Z,3.75
2022-11-18T21:03:39.911Z,3.40
2022-11-18T21:06:14.272Z,2.50
2022-11-18T21:08:42.074Z,2.20
2022-11-18T21:11:11.019Z,2.10
2022-11-18T21:13:56.894Z,2.03
2022-11-18T21:16:24.508Z,2.30
2022-11-18T21:18:51.392Z,2.30
2022-11-18T21:21:36.276Z,2.40
2022-11-18T21:24:03.429Z,2.53
2022-11-18T21:26:31.887Z,2.35
2022-11-18T21:29:01.244Z,2.53
2022-11-18T21:31:29.051Z,2.30
2022-11-18T21:33:56.299Z,2.60
2022-11-18T21:36:24.250Z,2.80
2022-11-18T21:38:50.878Z,2.90
2022-11-18T21:41:17.876Z,2.50
2022-11-18T21:44:04.464Z,2.50
2022-11-18T21:46:31.386Z,2.78
2022-11-18T21:49:00.353Z,2.40
2022-11-18T21:51:27.454Z,2.20
2022-11-18T21:53:54.340Z,2.30
2022-11-18T21:56:22.884Z,2.33
2022-11-18T21:58:49.963Z,2.20
2022-11-18T22:01:19.116Z,2.13
2022-11-18T22:03:55.178Z,2.42
2022-11-18T22:06:26.192Z,2.35
2022-11-18T22:08:53.202Z,2.28
2022-11-18T22:11:24.033Z,2.60
2022-11-18T22:13:52.128Z,2.63
2022-11-18T22:16:22.174Z,2.60
2022-11-18T22:18:56.019Z,2.22
2022-11-18T22:21:26.400Z,2.40
2022-11-18T22:23:57.878Z,2.50
2022-11-18T22:26:24.450Z,2.30
2022-11-18T22:28:56.078Z,2.40
2022-11-18T22:31:24.452Z,2.40
2022-11-18T22:33:51.849Z,2.67
2022-11-18T22:36:20.857Z,2.80
2022-11-18T22:38:47.937Z,2.70
2022-11-18T22:41:36.325Z,2.30
2022-11-18T22:44:07.289Z,2.40
2022-11-18T22:46:36.036Z,2.35
2022-11-18T22:49:02.584Z,2.75
2022-11-18T22:51:29.142Z,2.80
2022-11-18T22:54:15.816Z,2.70
2022-11-18T22:56:42.209Z,2.60
2022-11-18T22:59:11.017Z,2.50
2022-11-18T23:01:37.508Z,2.50
2022-11-18T23:04:04.137Z,2.30
2022-11-18T23:06:30.698Z,2.60
2022-11-18T23:08:57.243Z,2.60
2022-11-18T23:11:42.513Z,2.70
2022-11-18T23:14:10.215Z,2.53
2022-11-18T23:16:39.906Z,2.67
2022-11-18T23:19:14.196Z,2.72
2022-11-18T23:21:41.780Z,2.95
2022-11-18T23:24:12.847Z,2.85
2022-11-18T23:26:39.483Z,2.58
2022-11-18T23:29:06.346Z,2.30
2022-11-18T23:31:32.963Z,2.45
2022-11-18T23:33:59.710Z,2.30
2022-11-18T23:36:26.987Z,2.10
2022-11-18T23:38:54.164Z,2.38
2022-11-18T23:41:21.477Z,2.10
2022-11-18T23:43:48.819Z,2.20
2022-11-18T23:46:17.018Z,2.13
2022-11-18T23:48:44.831Z,3.08
2022-11-18T23:51:16.712Z,3.53
2022-11-18T23:53:44.259Z,4.20
2022-11-18T23:56:13.333Z,4.05
2022-11-18T23:58:41.109Z,2.95
